Time;durP1;ratioP1;P1;durP2;ratioP2;P2;SDS_P1;SDS_P2;PMS_P1;PMS_P2;Temp;Humidity;BMP_temperature;BMP_pressure;BME280_temperature;BME280_humidity;BME280_pressure;Samples;Min_cycle;Max_cycle;Signal;HPM_P1;HPM_P2
2021/08/17 00:01:30;;;;;;;7.53;4.27;;;;;;;11.79;73.70;95889.41;5149263;27;20182;-78
2021/08/17 00:03:56;;;;;;;4.87;3.93;;;;;;;11.68;73.47;95892.22;5114229;27;21111;-78
2021/08/17 00:06:21;;;;;;;5.77;4.30;;;;;;;11.67;74.08;95889.78;5114497;27;20229;-79
2021/08/17 00:08:46;;;;;;;5.33;4.27;;;;;;;11.69;73.97;95880.84;5131861;27;20186;-78
2021/08/17 00:11:12;;;;;;;7.70;4.30;;;;;;;11.69;74.09;95885.25;5114539;27;20175;-78
2021/08/17 00:13:37;;;;;;;5.63;4.20;;;;;;;11.67;73.13;95887.19;5114642;27;20271;-78
2021/08/17 00:16:03;;;;;;;7.67;4.83;;;;;;;11.73;73.41;95883.97;5115262;27;20224;-78
2021/08/17 00:18:28;;;;;;;6.43;4.77;;;;;;;11.67;73.93;95884.56;5132395;27;20245;-78
2021/08/17 00:20:53;;;;;;;5.50;4.40;;;;;;;11.60;73.63;95892.97;5150781;27;20187;-77
2021/08/17 00:23:19;;;;;;;6.03;4.53;;;;;;;11.61;74.36;95894.59;5132874;27;20183;-77
2021/08/17 00:25:45;;;;;;;6.13;4.70;;;;;;;11.67;73.92;95895.81;5115443;27;20171;-78
2021/08/17 00:28:10;;;;;;;6.93;4.13;;;;;;;11.58;73.88;95896.69;5133427;27;20198;-78
2021/08/17 00:30:37;;;;;;;8.03;4.33;;;;;;;11.61;74.85;95896.38;5117239;27;20180;-79
2021/08/17 00:33:03;;;;;;;6.13;4.43;;;;;;;11.57;75.23;95898.47;5133704;27;20171;-77
2021/08/17 00:35:28;;;;;;;7.97;4.80;;;;;;;11.70;74.20;95894.69;5134497;27;20240;-79
2021/08/17 00:37:53;;;;;;;6.87;4.10;;;;;;;11.55;75.12;95902.16;5133874;27;20190;-77
2021/08/17 00:40:18;;;;;;;6.77;4.80;;;;;;;11.42;75.29;95892.09;5127387;28;20694;-78
2021/08/17 00:42:46;;;;;;;8.77;4.67;;;;;;;11.41;75.29;95895.66;5111795;28;20199;-79
2021/08/17 00:45:22;;;;;;;6.97;4.77;;;;;;;11.38;75.09;95903.72;5114287;28;20262;-77
2021/08/17 00:47:51;;;;;;;7.20;4.97;;;;;;;11.30;74.70;95908.81;5095536;28;20262;-77
2021/08/17 00:50:18;;;;;;;6.50;4.80;;;;;;;11.22;74.95;95911.31;5096677;28;20670;-78
2021/08/17 00:52:43;;;;;;;8.63;5.10;;;;;;;11.17;75.27;95913.53;5113531;28;20243;-78
2021/08/17 00:55:10;;;;;;;7.53;4.83;;;;;;;11.11;75.70;95909.72;5096761;28;20670;-77
2021/08/17 00:57:37;;;;;;;8.93;5.30;;;;;;;11.02;76.40;95906.19;5131710;27;20241;-78
2021/08/17 01:00:06;;;;;;;7.90;5.30;;;;;;;11.04;76.57;95908.63;5097429;28;20578;-79
2021/08/17 01:02:32;;;;;;;9.73;5.07;;;;;;;10.96;76.32;95908.56;5113356;28;20180;-78
2021/08/17 01:04:58;;;;;;;6.70;5.00;;;;;;;10.95;76.78;95912.91;5096555;28;20172;-80
2021/08/17 01:07:23;;;;;;;9.90;5.00;;;;;;;10.78;77.02;95911.88;5113180;28;20202;-78
2021/08/17 01:09:48;;;;;;;8.37;4.30;;;;;;;10.80;77.06;95916.94;5112822;28;20172;-78
2021/08/17 01:12:14;;;;;;;7.80;4.93;;;;;;;10.77;77.02;95917.19;5112318;28;20179;-78
2021/08/17 01:14:39;;;;;;;7.77;5.07;;;;;;;10.66;77.66;95918.16;5131111;28;20175;-79
2021/08/17 01:17:04;;;;;;;8.40;4.90;;;;;;;10.59;77.78;95918.84;5095314;28;20207;-79
2021/08/17 01:19:30;;;;;;;6.27;4.50;;;;;;;10.61;78.10;95920.38;5112225;28;20204;-77
2021/08/17 01:21:56;;;;;;;8.53;4.87;;;;;;;10.49;78.63;95921.47;5111620;28;20176;-79
2021/08/17 01:24:21;;;;;;;7.50;4.63;;;;;;;10.49;78.37;95921.47;5095448;28;20757;-79
2021/08/17 01:26:47;;;;;;;7.23;4.83;;;;;;;10.55;78.46;95925.28;5095623;28;20188;-78
2021/08/17 01:29:15;;;;;;;11.60;5.37;;;;;;;10.57;77.82;95924.19;5096408;28;20237;-77
2021/08/17 01:31:41;;;;;;;8.40;5.30;;;;;;;10.44;78.82;95921.06;5095811;28;20179;-78
2021/08/17 01:34:06;;;;;;;6.87;4.40;;;;;;;10.50;77.67;95934.31;5096721;28;20176;-79
2021/08/17 01:36:32;;;;;;;7.13;4.70;;;;;;;10.46;78.37;95934.72;5095989;28;20219;-77
2021/08/17 01:38:57;;;;;;;8.13;5.23;;;;;;;10.45;77.86;95939.09;5113028;28;20192;-79
2021/08/17 01:41:23;;;;;;;11.20;5.10;;;;;;;10.37;78.77;95943.34;5111781;28;20201;-77
2021/08/17 01:43:48;;;;;;;7.43;4.87;;;;;;;10.30;78.46;95937.03;5095699;28;20179;-79
2021/08/17 01:46:14;;;;;;;8.50;4.90;;;;;;;10.27;78.89;95939.94;5113365;28;20203;-79
2021/08/17 01:48:39;;;;;;;7.07;4.67;;;;;;;10.30;78.45;95932.69;5111990;28;20171;-78
2021/08/17 01:51:05;;;;;;;9.30;4.73;;;;;;;10.26;78.58;95933.91;5112921;28;20180;-79
2021/08/17 01:53:32;;;;;;;9.00;5.07;;;;;;;10.32;78.74;95942.91;5095279;28;20172;-78
2021/08/17 01:55:58;;;;;;;6.67;5.10;;;;;;;10.31;78.83;95936.09;5111549;28;20180;-78
2021/08/17 01:58:24;;;;;;;8.50;5.67;;;;;;;10.24;78.21;95940.19;5112119;28;20596;-78
2021/08/17 02:00:49;;;;;;;8.43;4.80;;;;;;;10.26;78.73;95928.72;5112488;28;20288;-78
2021/08/17 02:03:14;;;;;;;6.50;4.87;;;;;;;10.37;78.17;95938.16;5110805;28;20237;-78
2021/08/17 02:05:40;;;;;;;9.17;5.33;;;;;;;10.29;78.36;95931.03;5112441;28;20176;-77
2021/08/17 02:08:05;;;;;;;9.07;4.50;;;;;;;10.22;78.73;95937.72;5111669;28;20192;-77
2021/08/17 02:10:31;;;;;;;7.97;5.03;;;;;;;10.19;78.89;95932.78;5112069;28;20168;-79
2021/08/17 02:12:56;;;;;;;10.27;5.00;;;;;;;10.16;78.57;95928.69;5111704;28;20195;-78
2021/08/17 02:15:22;;;;;;;6.17;4.47;;;;;;;10.13;79.02;95935.91;5112257;28;20187;-76
2021/08/17 02:17:47;;;;;;;8.37;4.60;;;;;;;10.24;78.70;95937.59;5112213;28;20620;-79
2021/08/17 02:20:13;;;;;;;8.43;4.70;;;;;;;10.21;78.11;95943.84;5094961;28;20199;-77
2021/08/17 02:22:38;;;;;;;7.03;4.77;;;;;;;10.15;78.27;95946.97;5093210;28;20182;-79
2021/08/17 02:25:05;;;;;;;6.80;5.10;;;;;;;10.08;78.35;95946.72;5112209;28;20176;-78
2021/08/17 02:27:34;;;;;;;6.60;4.57;;;;;;;10.01;78.60;95952.56;5095494;28;20200;-77
2021/08/17 02:30:00;;;;;;;6.50;3.97;;;;;;;9.89;78.84;95960.47;5112380;28;20620;-78
2021/08/17 02:32:25;;;;;;;10.23;5.03;;;;;;;10.00;78.44;95958.72;5094644;28;20179;-79
2021/08/17 02:34:51;;;;;;;7.80;4.83;;;;;;;9.89;78.55;95960.47;5112134;28;20172;-78
2021/08/17 02:37:16;;;;;;;9.60;4.93;;;;;;;9.92;78.55;95967.97;5094954;28;20217;-78
2021/08/17 02:39:41;;;;;;;6.97;5.00;;;;;;;9.92;79.12;95969.75;5111587;28;20204;-79
2021/08/17 02:42:07;;;;;;;8.83;5.10;;;;;;;9.84;78.91;95961.81;5110678;28;20172;-79
2021/08/17 02:44:32;;;;;;;8.60;4.40;;;;;;;9.78;79.37;95960.56;5095028;28;20183;-78
2021/08/17 02:46:57;;;;;;;8.17;4.77;;;;;;;9.60;79.36;95957.78;5111952;28;20214;-79
2021/08/17 02:49:23;;;;;;;8.53;4.97;;;;;;;9.66;79.67;95964.22;5110704;28;20171;-78
2021/08/17 02:51:48;;;;;;;7.43;4.80;;;;;;;9.56;79.46;95964.19;5104823;28;20631;-79
2021/08/17 02:54:13;;;;;;;8.90;4.90;;;;;;;9.52;79.89;95967.16;5088939;28;20183;-77
2021/08/17 02:56:38;;;;;;;10.80;5.10;;;;;;;9.57;79.91;95970.19;5106239;28;20578;-77
2021/08/17 02:59:04;;;;;;;8.63;4.60;;;;;;;9.55;79.82;95964.31;5106456;28;20215;-77
2021/08/17 03:01:29;;;;;;;7.63;4.83;;;;;;;9.50;80.24;95969.88;5088478;28;20184;-79
2021/08/17 03:03:54;;;;;;;7.10;4.70;;;;;;;9.48;79.46;95965.78;5106579;28;20187;-78
2021/08/17 03:06:20;;;;;;;6.33;4.17;;;;;;;9.49;79.43;95967.44;5123030;28;20566;-77
2021/08/17 03:08:45;;;;;;;9.73;4.70;;;;;;;9.44;79.61;95967.81;5089423;28;20175;-76
2021/08/17 03:11:10;;;;;;;7.83;5.43;;;;;;;9.41;79.43;95967.25;5105545;28;20572;-77
2021/08/17 03:13:36;;;;;;;7.03;4.77;;;;;;;9.45;79.08;95969.44;5111548;28;20187;-78
2021/08/17 03:16:01;;;;;;;9.83;5.07;;;;;;;9.37;79.30;95961.53;5111853;28;20179;-77
2021/08/17 03:18:26;;;;;;;12.90;5.67;;;;;;;9.33;79.70;95970.50;5111901;28;20262;-78
2021/08/17 03:20:53;;;;;;;6.87;4.57;;;;;;;9.29;79.90;95969.13;5128840;28;20213;-78
2021/08/17 03:23:19;;;;;;;9.33;5.50;;;;;;;9.24;80.09;95956.53;5111595;28;20183;-79
2021/08/17 03:25:44;;;;;;;7.17;4.77;;;;;;;9.16;80.13;95961.53;5095374;28;20172;-78
2021/08/17 03:28:10;;;;;;;9.80;5.20;;;;;;;9.11;80.29;95958.53;5112563;28;20200;-77
2021/08/17 03:30:36;;;;;;;7.30;4.87;;;;;;;9.15;80.42;95961.69;5095558;28;20183;-79
2021/08/17 03:33:01;;;;;;;8.07;4.77;;;;;;;9.17;80.01;95960.59;5094968;28;20180;-79
2021/08/17 03:35:27;;;;;;;10.47;5.13;;;;;;;9.14;79.77;95960.88;5111898;28;20332;-79
2021/08/17 03:37:52;;;;;;;8.60;5.23;;;;;;;9.12;79.98;95962.75;5112238;28;20199;-78
2021/08/17 03:40:19;;;;;;;10.93;5.07;;;;;;;9.11;80.15;95968.91;5129409;28;20210;-78
2021/08/17 03:42:45;;;;;;;8.97;4.77;;;;;;;9.05;80.31;95961.63;5112044;28;20168;-76
2021/08/17 03:45:13;;;;;;;7.47;5.33;;;;;;;9.08;80.29;95966.53;5112208;28;20194;-79
2021/08/17 03:47:38;;;;;;;8.67;5.17;;;;;;;9.10;79.91;95964.66;5110774;28;20207;-77
2021/08/17 03:50:09;;;;;;;9.47;4.93;;;;;;;9.02;79.97;95967.06;5111737;28;20168;-78
2021/08/17 03:52:34;;;;;;;7.90;4.83;;;;;;;9.12;79.65;95973.13;5110962;28;20184;-78
2021/08/17 03:55:00;;;;;;;9.00;4.93;;;;;;;9.09;79.72;95968.19;5094373;28;20207;-78
2021/08/17 03:57:25;;;;;;;8.80;4.77;;;;;;;9.07;79.58;95968.31;5110517;28;20192;-77
2021/08/17 03:59:50;;;;;;;7.70;5.23;;;;;;;9.00;79.80;95967.19;5094512;28;20302;-78
2021/08/17 04:02:16;;;;;;;7.10;4.57;;;;;;;8.95;79.80;95973.72;5094630;28;20175;-79
2021/08/17 04:04:41;;;;;;;10.23;5.40;;;;;;;8.96;80.16;95975.34;5095598;28;20168;-78
2021/08/17 04:07:06;;;;;;;8.63;5.60;;;;;;;8.97;79.87;95970.03;5112320;28;20194;-78
2021/08/17 04:09:32;;;;;;;7.53;4.73;;;;;;;8.88;80.03;95975.16;5095201;28;20681;-79
2021/08/17 04:11:57;;;;;;;7.47;5.47;;;;;;;8.95;79.89;95971.13;5094436;28;20207;-77
2021/08/17 04:14:22;;;;;;;10.33;5.20;;;;;;;8.87;79.63;95970.94;5112210;28;20191;-78
2021/08/17 04:16:47;;;;;;;9.43;5.40;;;;;;;8.89;80.06;95975.03;5112686;28;20192;-78
2021/08/17 04:19:13;;;;;;;8.40;4.97;;;;;;;8.91;79.30;95985.25;5138220;27;20219;-77
2021/08/17 04:21:38;;;;;;;10.33;5.30;;;;;;;9.00;79.48;95980.13;5122408;27;20194;-76
2021/08/17 04:24:04;;;;;;;8.80;5.93;;;;;;;8.96;79.68;95988.31;5122832;28;20184;-76
2021/08/17 04:26:29;;;;;;;9.00;5.30;;;;;;;9.01;79.35;95991.31;5139900;28;20199;-76
2021/08/17 04:28:55;;;;;;;8.37;4.90;;;;;;;9.05;78.88;95992.72;5118861;28;20183;-78
2021/08/17 04:31:20;;;;;;;8.53;5.17;;;;;;;9.01;78.38;95997.34;5108847;28;20203;-77
2021/08/17 04:33:46;;;;;;;8.73;5.13;;;;;;;9.03;78.88;95997.22;5091866;28;20209;-77
2021/08/17 04:36:11;;;;;;;8.80;5.03;;;;;;;9.12;78.04;95999.03;5108982;28;20191;-77
2021/08/17 04:38:37;;;;;;;10.50;5.23;;;;;;;9.13;78.14;96002.44;5108438;28;20246;-78
2021/08/17 04:41:02;;;;;;;9.13;5.40;;;;;;;9.01;78.59;95996.50;5091795;28;20232;-77
2021/08/17 04:43:27;;;;;;;11.10;5.90;;;;;;;9.14;78.54;95996.31;5108250;28;20184;-77
2021/08/17 04:45:53;;;;;;;9.60;4.97;;;;;;;9.16;78.42;96003.00;5091924;28;20207;-78
2021/08/17 04:48:19;;;;;;;7.10;5.03;;;;;;;9.26;78.34;96016.00;5091577;28;20195;-77
2021/08/17 04:50:44;;;;;;;10.23;5.57;;;;;;;9.37;77.62;96015.97;5092450;28;20168;-77
2021/08/17 04:53:09;;;;;;;9.80;5.53;;;;;;;9.49;77.57;96016.69;5110633;28;20187;-78
2021/08/17 04:55:35;;;;;;;8.70;5.10;;;;;;;9.58;76.86;96019.31;5111216;28;20192;-79
2021/08/17 04:58:00;;;;;;;8.20;5.53;;;;;;;9.79;76.72;96018.44;5094004;28;20206;-78
2021/08/17 05:00:28;;;;;;;11.37;5.67;;;;;;;9.78;75.84;96017.63;5093938;28;20204;-78
2021/08/17 05:02:54;;;;;;;9.23;5.47;;;;;;;10.04;75.56;96017.16;5109330;28;20172;-77
2021/08/17 05:05:20;;;;;;;9.27;5.00;;;;;;;10.13;75.73;96017.19;5109389;28;20179;-77
2021/08/17 05:07:45;;;;;;;11.97;5.63;;;;;;;10.48;75.24;96024.50;5104585;28;20196;-78
2021/08/17 05:10:14;;;;;;;8.20;5.27;;;;;;;10.67;73.27;96026.28;5124596;28;20626;-77
2021/08/17 05:12:39;;;;;;;9.10;5.13;;;;;;;11.58;70.96;96029.34;5105898;28;20168;-78
2021/08/17 05:15:06;;;;;;;7.57;5.00;;;;;;;12.28;69.18;96033.16;5108678;28;20225;-78
2021/08/17 05:17:32;;;;;;;9.60;5.53;;;;;;;12.40;67.38;96038.97;5091193;27;20210;-77
2021/08/17 05:19:58;;;;;;;9.43;5.37;;;;;;;12.24;67.40;96039.59;5126817;27;20203;-77
2021/08/17 05:22:23;;;;;;;10.83;5.50;;;;;;;11.97;68.17;96037.81;5121029;27;20231;-77
2021/08/17 05:24:48;;;;;;;8.20;5.47;;;;;;;11.68;69.17;96031.91;5141446;27;20261;-78
2021/08/17 05:27:14;;;;;;;8.13;5.27;;;;;;;11.62;69.54;96035.88;5125044;27;20198;-76
2021/08/17 05:29:39;;;;;;;8.83;5.50;;;;;;;11.41;70.10;96033.47;5106816;27;20175;-76
2021/08/17 05:32:05;;;;;;;9.97;5.57;;;;;;;11.63;70.00;96035.72;5125661;27;20175;-77
2021/08/17 05:34:31;;;;;;;8.63;5.70;;;;;;;11.43;71.35;96033.34;5127533;27;20631;-79
2021/08/17 05:36:57;;;;;;;7.90;5.20;;;;;;;11.18;71.71;96032.97;5122911;27;20555;-78
2021/08/17 05:39:22;;;;;;;9.53;5.63;;;;;;;11.23;72.03;96038.59;5122153;27;20259;-78
2021/08/17 05:41:47;;;;;;;8.17;5.87;;;;;;;11.09;72.46;96039.00;5121586;27;20163;-77
2021/08/17 05:44:13;;;;;;;8.80;6.30;;;;;;;11.00;73.53;96039.84;5122296;27;20311;-78
2021/08/17 05:46:38;;;;;;;10.83;6.17;;;;;;;11.16;72.92;96041.88;5123133;27;20566;-77
2021/08/17 05:49:03;;;;;;;10.03;6.77;;;;;;;11.34;71.93;96042.81;5122022;27;20175;-77
2021/08/17 05:51:28;;;;;;;10.20;6.40;;;;;;;11.44;72.00;96040.19;5123645;27;20232;-78
2021/08/17 05:53:54;;;;;;;9.37;6.60;;;;;;;11.46;71.80;96044.25;5125262;27;20179;-76
2021/08/17 05:56:19;;;;;;;10.87;6.67;;;;;;;11.92;70.97;96040.03;5125572;27;20219;-78
2021/08/17 05:58:44;;;;;;;11.73;6.60;;;;;;;12.06;70.79;96039.56;5125610;27;20175;-77
2021/08/17 06:01:10;;;;;;;10.50;6.40;;;;;;;12.09;71.38;96041.88;5107156;27;20183;-76
2021/08/17 06:03:35;;;;;;;10.23;6.27;;;;;;;12.31;70.39;96051.09;5106536;27;20171;-77
2021/08/17 06:06:00;;;;;;;10.53;6.70;;;;;;;12.30;70.66;96041.63;5143409;27;20577;-77
2021/08/17 06:08:26;;;;;;;13.37;6.27;;;;;;;12.19;71.09;96047.03;5122410;27;20171;-77
2021/08/17 06:10:51;;;;;;;10.27;7.10;;;;;;;12.24;70.68;96049.19;5105181;27;20179;-76
2021/08/17 06:13:16;;;;;;;11.00;7.07;;;;;;;12.26;71.14;96047.25;5120536;27;20175;-77
2021/08/17 06:15:42;;;;;;;9.43;6.57;;;;;;;12.25;70.39;96041.25;5117129;27;20232;-77
2021/08/17 06:18:08;;;;;;;9.60;6.60;;;;;;;12.21;71.29;96033.88;5116956;27;20251;-77
2021/08/17 06:20:34;;;;;;;13.77;6.50;;;;;;;12.15;71.36;96043.91;5116500;27;20199;-77
2021/08/17 06:22:59;;;;;;;8.53;6.87;;;;;;;12.16;70.73;96048.13;5115368;27;20195;-77
2021/08/17 06:25:25;;;;;;;10.17;6.77;;;;;;;12.11;70.66;96045.16;5114572;27;20171;-77
2021/08/17 06:27:50;;;;;;;12.80;7.90;;;;;;;12.25;70.87;96048.22;5097927;27;20199;-76
2021/08/17 06:30:15;;;;;;;10.37;7.03;;;;;;;12.35;70.02;96041.19;5133479;27;20167;-76
2021/08/17 06:32:41;;;;;;;10.97;7.30;;;;;;;12.31;69.88;96048.47;5113494;27;20171;-77
2021/08/17 06:35:06;;;;;;;12.50;7.83;;;;;;;12.43;69.07;96049.09;5115884;27;20275;-77
2021/08/17 06:37:32;;;;;;;11.27;7.73;;;;;;;12.94;68.18;96050.22;5115039;27;20195;-77
2021/08/17 06:39:57;;;;;;;11.10;7.37;;;;;;;14.16;61.93;96051.03;5133498;27;20696;-77
2021/08/17 06:42:23;;;;;;;9.30;6.67;;;;;;;15.65;58.22;96062.41;5117426;27;20642;-76
2021/08/17 06:44:48;;;;;;;9.97;6.20;;;;;;;16.81;53.59;96070.50;5117311;27;20530;-77
2021/08/17 06:47:13;;;;;;;10.40;6.90;;;;;;;17.85;50.82;96061.16;5099644;27;20210;-77
2021/08/17 06:49:38;;;;;;;10.18;6.90;;;;;;;18.61;48.09;96073.06;5113749;27;20183;-77
2021/08/17 06:52:04;;;;;;;8.93;6.93;;;;;;;18.91;46.29;96079.09;5130928;27;20251;-77
2021/08/17 06:54:29;;;;;;;9.65;5.97;;;;;;;19.75;44.88;96072.19;5096282;27;20649;-77
2021/08/17 06:56:55;;;;;;;9.00;6.60;;;;;;;19.15;44.47;96070.81;5096006;27;20207;-76
2021/08/17 06:59:20;;;;;;;9.60;7.20;;;;;;;19.91;43.88;96075.53;5112778;27;20682;-77
2021/08/17 07:01:45;;;;;;;10.55;7.28;;;;;;;19.75;43.55;96068.72;5131464;27;20804;-77
2021/08/17 07:04:10;;;;;;;10.50;7.22;;;;;;;19.60;44.91;96073.28;5096898;27;20204;-77
2021/08/17 07:06:36;;;;;;;11.07;7.60;;;;;;;18.93;45.26;96077.91;5096341;27;20234;-77
2021/08/17 07:09:03;;;;;;;10.23;7.78;;;;;;;18.85;45.87;96075.41;5113031;27;20321;-77
2021/08/17 07:11:29;;;;;;;9.00;7.40;;;;;;;18.05;47.45;96075.38;5112599;27;20697;-77
2021/08/17 07:13:55;;;;;;;10.80;7.53;;;;;;;17.68;49.31;96079.66;5113945;28;20175;-77
2021/08/17 07:16:20;;;;;;;9.95;7.32;;;;;;;17.36;50.00;96078.13;5113783;28;20545;-77
2021/08/17 07:18:45;;;;;;;10.18;7.25;;;;;;;16.86;50.87;96089.13;5113219;28;20854;-77
2021/08/17 07:21:10;;;;;;;10.65;7.18;;;;;;;16.80;51.74;96082.78;5131036;28;20186;-77
2021/08/17 07:23:36;;;;;;;10.98;7.28;;;;;;;15.99;53.68;96086.56;5112734;28;20179;-77
2021/08/17 07:26:01;;;;;;;8.82;6.55;;;;;;;15.91;53.63;96085.75;5112992;28;20187;-77
2021/08/17 07:28:27;;;;;;;9.10;6.40;;;;;;;15.23;54.80;96095.59;5112405;28;20171;-76
2021/08/17 07:30:52;;;;;;;8.30;6.32;;;;;;;14.73;54.96;96093.06;5112815;28;20175;-78
2021/08/17 07:33:18;;;;;;;9.48;6.30;;;;;;;14.80;55.13;96088.81;5118637;28;20179;-78
2021/08/17 07:35:43;;;;;;;11.20;6.75;;;;;;;14.44;55.58;96086.41;5105272;28;20527;-78
2021/08/17 07:38:09;;;;;;;9.13;6.47;;;;;;;14.41;56.58;96088.53;5134343;28;20686;-77
2021/08/17 07:40:34;;;;;;;8.87;6.27;;;;;;;14.31;56.66;96091.28;5118695;28;20202;-75
2021/08/17 07:42:59;;;;;;;7.90;5.73;;;;;;;14.47;55.42;96084.47;5098068;28;20175;-77
2021/08/17 07:45:25;;;;;;;7.93;5.97;;;;;;;14.13;57.33;96090.50;5115874;28;20187;-78
2021/08/17 07:47:50;;;;;;;8.57;5.93;;;;;;;14.28;56.78;96088.16;5101341;28;20697;-77
2021/08/17 07:50:16;;;;;;;9.00;6.50;;;;;;;14.66;56.67;96084.22;5137077;28;20255;-77
2021/08/17 07:52:41;;;;;;;9.53;6.20;;;;;;;14.87;56.22;96083.78;5136433;27;20175;-78
2021/08/17 07:55:09;;;;;;;10.10;5.77;;;;;;;14.70;54.90;96085.53;5136934;27;20262;-77
2021/08/17 07:57:35;;;;;;;8.37;6.20;;;;;;;14.79;55.15;96083.75;5135410;27;20711;-76
2021/08/17 08:00:00;;;;;;;8.47;5.73;;;;;;;14.87;56.04;96089.81;5133466;27;20222;-76
2021/08/17 08:02:25;;;;;;;10.40;5.97;;;;;;;14.77;54.79;96090.97;5134658;27;20249;-76
2021/08/17 08:04:51;;;;;;;8.17;6.20;;;;;;;15.02;54.59;96088.22;5136415;27;20167;-77
2021/08/17 08:07:16;;;;;;;8.67;6.17;;;;;;;15.20;53.73;96092.50;5116764;27;20238;-77
2021/08/17 08:09:41;;;;;;;11.33;6.23;;;;;;;15.50;53.42;96102.28;5116964;27;20237;-76
2021/08/17 08:12:09;;;;;;;8.60;5.97;;;;;;;16.00;52.79;96093.41;5116077;27;20175;-76
2021/08/17 08:14:34;;;;;;;9.07;6.03;;;;;;;16.35;51.61;96099.22;5120049;27;20317;-76
2021/08/17 08:16:59;;;;;;;8.90;5.90;;;;;;;16.24;50.54;96096.94;5121238;27;20187;-77
2021/08/17 08:19:25;;;;;;;8.27;5.87;;;;;;;16.58;50.47;96094.81;5119824;27;20206;-75
2021/08/17 08:21:50;;;;;;;9.63;5.53;;;;;;;16.19;49.12;96094.84;5119640;27;20509;-77
2021/08/17 08:24:16;;;;;;;9.13;6.00;;;;;;;16.58;49.37;96094.00;5116533;27;20175;-77
2021/08/17 08:26:41;;;;;;;8.30;5.80;;;;;;;16.37;49.33;96102.47;5099609;27;20191;-75
2021/08/17 08:29:06;;;;;;;9.70;5.40;;;;;;;16.18;47.50;96097.63;5119519;27;20232;-78
2021/08/17 08:31:32;;;;;;;9.70;5.90;;;;;;;16.22;48.65;96104.16;5141665;27;20175;-77
2021/08/17 08:33:57;;;;;;;7.68;5.07;;;;;;;16.67;48.72;96099.03;5120671;27;20179;-78
2021/08/17 08:36:22;;;;;;;7.97;5.25;;;;;;;16.10;48.66;96107.16;5101955;27;20210;-77
2021/08/17 08:38:47;;;;;;;7.55;5.25;;;;;;;16.27;48.72;96112.34;5099198;27;20527;-77
2021/08/17 08:41:16;;;;;;;7.32;5.18;;;;;;;15.75;48.63;96120.63;5095166;28;20658;-78
2021/08/17 08:43:43;;;;;;;9.05;5.80;;;;;;;15.79;49.72;96114.88;5108750;27;20171;-76
2021/08/17 08:46:18;;;;;;;8.88;5.35;;;;;;;15.83;48.03;96124.06;5119686;27;20179;-77
2021/08/17 08:48:49;;;;;;;7.63;5.20;;;;;;;16.09;49.06;96123.03;5101676;27;20168;-77
2021/08/17 08:51:16;;;;;;;10.17;5.03;;;;;;;15.54;49.77;96118.47;5096994;28;20357;-77
2021/08/17 08:53:41;;;;;;;6.88;5.47;;;;;;;16.22;49.85;96110.22;5099764;28;20186;-77
2021/08/17 08:56:07;;;;;;;7.80;5.47;;;;;;;16.34;49.62;96110.66;5080653;28;20562;-78
2021/08/17 08:58:32;;;;;;;8.05;5.82;;;;;;;16.36;49.95;96106.09;5107151;28;20615;-77
2021/08/17 09:00:57;;;;;;;6.40;5.40;;;;;;;16.53;50.81;96118.13;5090345;28;20279;-76
2021/08/17 09:03:42;;;;;;;7.50;5.78;;;;;;;16.49;50.23;96118.63;5093014;28;20267;-76
2021/08/17 09:06:23;;;;;;;9.30;5.82;;;;;;;16.22;49.80;96118.06;5094485;28;20332;-76
2021/08/17 09:09:04;;;;;;;7.85;5.57;;;;;;;16.22;50.14;96119.88;5113617;27;20179;-76
2021/08/17 09:11:30;;;;;;;8.43;5.35;;;;;;;16.14;49.95;96121.53;5092165;27;20251;-76
2021/08/17 09:13:55;;;;;;;7.47;5.47;;;;;;;16.30;49.64;96120.66;5094850;27;20731;-76
2021/08/17 09:16:29;;;;;;;8.82;4.90;;;;;;;16.43;50.75;96120.13;5113010;27;20191;-76
2021/08/17 09:18:55;;;;;;;5.97;4.80;;;;;;;16.21;49.21;96119.06;5134858;27;20184;-77
2021/08/17 09:21:39;;;;;;;6.93;5.35;;;;;;;16.75;48.06;96121.00;5100627;27;20658;-78
2021/08/17 09:24:26;;;;;;;8.43;5.70;;;;;;;17.09;48.12;96118.84;5117724;27;20175;-78
2021/08/17 09:26:57;;;;;;;7.40;5.65;;;;;;;17.02;49.18;96128.41;5113540;27;20206;-80
2021/08/17 09:29:28;;;;;;;7.32;5.30;;;;;;;17.19;48.48;96131.75;5114067;27;20186;-77
2021/08/17 09:31:55;;;;;;;6.82;5.10;;;;;;;17.89;48.09;96115.78;5110288;27;20171;-78
2021/08/17 09:34:23;;;;;;;6.97;5.60;;;;;;;17.65;47.48;96115.97;5098179;27;20175;-77
2021/08/17 09:36:49;;;;;;;9.23;6.18;;;;;;;17.20;49.06;96110.56;5098260;27;20191;-76
2021/08/17 09:39:30;;;;;;;7.43;5.47;;;;;;;17.45;48.34;96100.69;5115087;27;20776;-77
2021/08/17 09:42:17;;;;;;;7.82;5.07;;;;;;;17.82;47.78;96099.09;5114737;27;20183;-76
2021/08/17 09:44:44;;;;;;;8.38;5.10;;;;;;;17.61;47.33;96102.38;5133437;27;20206;-79
2021/08/17 09:47:09;;;;;;;5.88;4.85;;;;;;;17.06;46.91;96098.22;5116920;27;20703;-78
2021/08/17 09:49:34;;;;;;;6.65;5.20;;;;;;;17.24;46.79;96093.50;5114765;27;20166;-76
2021/08/17 09:52:15;;;;;;;7.93;5.00;;;;;;;17.04;48.25;96087.06;5132049;27;20183;-76
2021/08/17 09:54:42;;;;;;;4.47;4.03;;;;;;;16.80;46.71;96082.78;5131960;27;20170;-76
2021/08/17 09:57:08;;;;;;;4.78;3.83;;;;;;;16.53;47.06;96097.16;5114097;27;20645;-76
2021/08/17 09:59:36;;;;;;;8.65;4.55;;;;;;;16.29;46.39;96097.25;5113924;27;20210;-75
2021/08/17 10:02:02;;;;;;;6.43;4.65;;;;;;;16.09;48.38;96088.97;5113590;27;20191;-76
2021/08/17 10:04:27;;;;;;;5.72;4.00;;;;;;;16.08;48.31;96088.16;5114131;27;20182;-76
2021/08/17 10:06:55;;;;;;;8.50;4.53;;;;;;;15.91;48.89;96085.75;5114077;27;20183;-76
2021/08/17 10:09:23;;;;;;;7.22;4.35;;;;;;;16.14;49.50;96090.09;5114225;27;20850;-76
2021/08/17 10:11:48;;;;;;;6.18;4.85;;;;;;;16.31;49.46;96087.41;5091508;27;20172;-76
2021/08/17 10:14:14;;;;;;;6.65;4.45;;;;;;;16.73;48.66;96081.03;5132838;27;20205;-78
2021/08/17 10:16:41;;;;;;;7.05;5.03;;;;;;;16.95;49.71;96083.66;5113401;27;20247;-76
2021/08/17 10:19:07;;;;;;;5.93;4.70;;;;;;;17.37;48.00;96085.00;5111603;27;20183;-76
2021/08/17 10:21:32;;;;;;;7.40;4.32;;;;;;;17.29;46.52;96079.81;5113307;27;20691;-77
2021/08/17 10:23:58;;;;;;;8.50;5.47;;;;;;;16.62;47.30;96083.03;5114399;27;20179;-76
2021/08/17 10:26:31;;;;;;;6.10;5.00;;;;;;;16.88;46.05;96084.56;5097336;27;20190;-77
2021/08/17 10:28:57;;;;;;;8.95;5.15;;;;;;;16.86;46.95;96070.78;5113817;27;20169;-77
2021/08/17 10:31:33;;;;;;;7.13;4.88;;;;;;;17.36;47.76;96070.25;5096196;27;20174;-76
2021/08/17 10:34:07;;;;;;;5.85;4.57;;;;;;;17.11;47.27;96074.06;5114392;27;20649;-77
2021/08/17 10:36:44;;;;;;;8.30;5.00;;;;;;;17.15;47.10;96077.97;5112346;27;20566;-76
2021/08/17 10:39:18;;;;;;;6.45;5.30;;;;;;;17.26;46.92;96061.81;5111320;27;20207;-76
2021/08/17 10:41:49;;;;;;;7.45;4.72;;;;;;;17.34;46.16;96047.81;5131650;27;20212;-77
2021/08/17 10:44:21;;;;;;;7.07;4.95;;;;;;;17.37;45.35;96042.19;5095377;27;20747;-76
2021/08/17 10:46:55;;;;;;;5.88;3.95;;;;;;;17.54;42.62;96041.88;5129251;27;20203;-76
2021/08/17 10:49:28;;;;;;;5.63;4.32;;;;;;;18.09;44.04;96047.72;5113807;27;20175;-77
2021/08/17 10:51:59;;;;;;;7.03;4.93;;;;;;;18.11;45.36;96046.56;5092819;27;20179;-77
2021/08/17 10:54:25;;;;;;;6.97;5.15;;;;;;;17.64;43.82;96044.22;5105478;27;20192;-76
2021/08/17 10:56:50;;;;;;;7.55;5.30;;;;;;;18.11;44.12;96045.75;5110075;27;20199;-76
2021/08/17 10:59:39;;;;;;;6.15;4.60;;;;;;;18.17;42.23;96039.75;5130224;27;20692;-76
2021/08/17 11:02:04;;;;;;;6.75;5.00;;;;;;;17.50;44.15;96047.66;5095563;27;20175;-76
2021/08/17 11:04:45;;;;;;;6.90;4.50;;;;;;;17.69;43.44;96043.72;5131501;27;20190;-76
2021/08/17 11:07:32;;;;;;;6.43;4.78;;;;;;;17.86;43.33;96031.25;5096038;27;20191;-76
2021/08/17 11:10:00;;;;;;;8.85;4.80;;;;;;;17.96;43.25;96032.59;5095920;27;20182;-77
2021/08/17 11:12:34;;;;;;;4.93;4.28;;;;;;;18.25;42.27;96026.50;5096024;27;20236;-77
2021/08/17 11:15:00;;;;;;;7.38;4.75;;;;;;;17.81;41.47;96013.41;5113482;28;20606;-77
2021/08/17 11:17:25;;;;;;;6.53;4.30;;;;;;;17.84;41.77;96010.41;5113888;28;20220;-80
2021/08/17 11:19:52;;;;;;;6.68;4.72;;;;;;;17.83;41.96;96006.94;5115094;27;20206;-76
2021/08/17 11:22:20;;;;;;;5.85;4.18;;;;;;;17.86;42.10;96002.34;5112877;28;20224;-76
2021/08/17 11:24:57;;;;;;;6.95;5.43;;;;;;;17.81;41.27;96008.13;5113462;28;20691;-77
2021/08/17 11:27:24;;;;;;;6.65;4.93;;;;;;;17.82;43.16;96009.75;5115895;27;20198;-76
2021/08/17 11:29:56;;;;;;;5.63;4.97;;;;;;;17.58;42.42;96013.47;5103318;27;20206;-78
2021/08/17 11:32:27;;;;;;;6.10;4.60;;;;;;;17.75;41.64;96016.72;5104439;27;20178;-79